[ 高 清 坊 ]

[ 877 主题 / 1746402 回复 ]

版块介绍: 论坛制作高清同志影视

版主: 晃司, blv

 类型 作者/时间 回复 查看 最后发表
  [裸男孩].A.Naked.Boy.2016.Short.1080p.x264.AAC-QaFoNE  ...23456..39 blv 2018-1-20 973/10662 9820015 22 分钟前
  [上帝之国].Gods.Own.Country.2017.1080p.WEB-DL.x264.AC3-QaFoNE  ...23456..121 blv 2018-1-16 3000/28310 blackfish83 昨天 21:01
  [阿波罗].Apollon.2016.Short.x264.AAC-QaFoNE  ...23456..39 blv 2018-1-13 964/9627 狂风 5 天前 10:46
  [伤口].The.Wound.2017.720p.WEB-DL.x264.AC3-QaFoNE  ...23456..41 blv 2018-1-8 1023/13534 jzpf 半小时前
  [深郁之蓝].Ultra.Bleu.2016.Short.720p.x264.AAC-QaFoNE  ...23456..29 blv 2018-1-5 722/10714 yuyy72yang 5 天前 10:40
  [每分钟120击].120.Beats.Per.Minute.BPM.2017.720p.WEBRip.x264.AAC-QaFoNE  ...23456..86 blv 2018-1-1 2137/20734 sansan333 前天 19:32
  [嫉妒做客].Jealousy.Is.My.Guest.2016.Short.1080p.x264.AAC-QaFoNE  ...23456..38 blv 2017-12-28 931/11385 ltdd 昨天 19:59
  [请以你的名字呼唤我].Call.Me.By.Your.Name.2017.DVDScr.Upscaled.x264.AAC-QaFoNE 评价指数 17  ...23456..113 blv 2017-12-23 2805/23579 jzpf 半小时前
  [疾走马丁].Speed.Walking.2014.1080p.WEBRip.x265.AC3-QaFoNE  ...23456..22 blv 2017-12-22 539/9550 bg520 3 天前 00:14
  [帅气的恶魔].Handsome.Devil.2016.1080p.WEB-DL.x265.AC3-QaFoNE  ...23456..55 blv 2017-12-15 1370/14802 sansan333 前天 19:42
  [觉醒彩虹].Woke.2017.S01.1080p.WEBRip.x264.AAC-QaFoNE  ...23456..39 blv 2017-12-8 962/11807 ltdd 昨天 20:11
  [公猫].Tomcat.2016.DVDRip.x264.AC3-QaFoNE  ...23456..49 blv 2017-12-7 1204/12276 tuong 前天 12:37
  [归巢].The.Nest.2016.DVDRip.x264.AAC-QaFoNE  ...23456..42 blv 2017-12-1 1035/11828 jzpf 半小时前
  [日常对话].Small.Talk.2016.720p.WEBRip.x264.AAC-QaFoNE  ...23456..15 blv 2017-11-27 352/10041 363976058 7 天前 18:21
  [克罗地亚宪法].The.Constitution.2016.720p.WEBRip.x264.AC3-QaFoNE  ...23456..23 blv 2017-11-18 559/9381 cherry19880908 2018-4-10 07:40
  [沙滩鼠].Beach.Rats.2017.1080p.BDRip.x265.AAC.AC3-QaFoNE  ...23456..91 blv 2017-11-11 2270/21775 athrun 昨天 18:19
  [老虎之战].The.Tigers.Fight.2016.Short.1080p.x264.AAC-QaFoNE  ...23456..27 blv 2017-10-22 663/11943 justsmile 前天 23:37
  [白日守门人].Daytime.Doorman.2016.Short.1080p.x264.AAC-QaFoNE  ...23456..77 blv 2017-10-11 1920/25136 ltdd 昨天 22:19
  [秋天之前].Before.the.Fall.2016.720p.WEB-DL.x264.AAC-QaFoNE  ...23456..97 blv 2017-10-7 2418/21973 ltdd 昨天 22:32
  [另一面].The.Other.Side.2017.Short.1080p.x264.AAC-QaFoNE  ...23456..44 blv 2017-10-1 1097/13701 蓝可 前天 23:04
  [同志地下情史之托马斯].The.DL.Chronicles.RETURNS.Episode.Thomas.2012.720p.WEBRip  ...23456..33 blv 2017-9-24 807/13836 kinya 昨天 13:52
  [足球赛].A.Football.Match.2015.Short.720p.x264.AAC-QaFoNE  ...23456..47 blv 2017-9-21 1154/14861 志同道合爱好者 5 天前 20:49
  [一分五十四秒].1.54.2016.720p.WEBRip.x264.AAC-QaFoNE  ...23456..40 blv 2017-9-17 978/15087 dearest1982 昨天 14:49
  [小费].Tips.2016.Short.1080p.x264.AAC-QaFoNE  ...23456..42 blv 2017-9-14 1045/15264 ltdd 昨天 22:37
  [阿里格尔].Aligarh.2016.720p.WEBRip.x264.AAC-QaFoNE  ...23456..30 blv 2017-9-10 739/13455 逆流之心 6 天前 16:26
  • QAF三国群英传信息联盟发布平台
  •